| time (UTC) | temp F | wind direction | speed knots | gust knots | rain 1hr in | rain 24hr in | rain mn in | humidity % | barometer mb |
| 20260903190027 | 83 | 191 | 4.3 | 14.8 | 0.00 | 0.25 | 0.25 | 72 | 1007.8 |
| 20260903184524 | 82 | 130 | 3.5 | 10.4 | 0.00 | 0.25 | 0.25 | 73 | 1007.9 |
| 20260903183022 | 82 | 150 | 3.5 | 12.2 | 0.00 | 0.25 | 0.25 | 75 | 1008.4 |
| 20260903181520 | 81 | 207 | 4.3 | 11.3 | 0.00 | 0.25 | 0.25 | 77 | 1008.4 |
| 20260903180017 | 80 | 150 | 5.2 | 15.6 | 0.00 | 0.25 | 0.25 | 77 | 1008.3 |
| 20260903174517 | 79 | 185 | 4.3 | 13.0 | 0.00 | 0.25 | 0.25 | 76 | 1008.2 |
| 20260903173115 | 79 | 164 | 5.2 | 11.3 | 0.00 | 0.25 | 0.25 | 78 | 1008.4 |
| 20260903171525 | 78 | 162 | 3.5 | 8.7 | 0.00 | 0.25 | 0.25 | 79 | 1007.9 |
| 20260903170028 | 78 | 167 | 2.6 | 12.2 | 0.00 | 0.25 | 0.25 | 80 | 1008.5 |
| 20260903164511 | 78 | 184 | 5.2 | 12.2 | 0.00 | 0.25 | 0.25 | 77 | 1008.6 |
| 20260903163015 | 80 | 157 | 3.5 | 13.0 | 0.00 | 0.25 | 0.25 | 76 | 1009.4 |
| 20260903161504 | 79 | 188 | 5.2 | 11.3 | 0.00 | 0.25 | 0.25 | 78 | 1009.8 |
| 20260903160004 | 78 | 184 | 4.3 | 11.3 | 0.00 | 0.25 | 0.25 | 79 | 1010.2 |
| 20260903154600 | 77 | 153 | 5.2 | 12.2 | 0.00 | 0.25 | 0.25 | 80 | 1009.7 |
| 20260903153056 | 75 | 213 | 3.5 | 7.8 | 0.00 | 0.25 | 0.25 | 85 | 1009.5 |
| 20260903151556 | 75 | 167 | 3.5 | 10.4 | 0.00 | 0.25 | 0.25 | 85 | 1010.0 |
| 20260903150108 | 74 | 150 | 2.6 | 6.1 | 0.00 | 0.25 | 0.25 | 87 | 1009.9 |
| 20260903144552 | 72 | 179 | 2.6 | 5.2 | 0.00 | 0.25 | 0.25 | 88 | 1010.0 |
| 20260903143051 | 71 | 161 | 3.5 | 6.1 | 0.00 | 0.25 | 0.25 | 90 | 1009.8 |
| 20260903141550 | 71 | 167 | 1.7 | 4.3 | 0.00 | 0.25 | 0.25 | 93 | 1009.7 |
| 20260903140051 | 70 | 162 | 2.6 | 4.3 | 0.08 | 0.25 | 0.25 | 95 | 1010.1 |
| 20260903134602 | 69 | 143 | 1.7 | 3.5 | 0.08 | 0.25 | 0.25 | 95 | 1010.2 |
| 20260903133049 | 69 | 158 | 1.7 | 3.5 | 0.08 | 0.25 | 0.25 | 94 | 1010.6 |
| 20260903131549 | 69 | 106 | 0.0 | 2.6 | 0.08 | 0.25 | 0.25 | 93 | 1010.8 |
| 20260903130053 | 70 | 138 | 0.9 | 2.6 | 0.00 | 0.17 | 0.17 | 92 | 1010.5 |
| 20260903124555 | 70 | 117 | 1.7 | 4.3 | 0.00 | 0.17 | 0.17 | 92 | 1010.0 |
| 20260903123048 | 69 | 148 | 1.7 | 3.5 | 0.01 | 0.17 | 0.17 | 93 | 1010.0 |
| 20260903121552 | 69 | 166 | 1.7 | 3.5 | 0.06 | 0.17 | 0.17 | 94 | 1010.0 |
| 20260903120054 | 68 | 156 | 1.7 | 3.5 | 0.08 | 0.17 | 0.17 | 94 | 1010.0 |
| 20260903114548 | 69 | 181 | 1.7 | 3.5 | 0.09 | 0.17 | 0.17 | 94 | 1010.1 |
| 20260903113051 | 69 | 162 | 1.7 | 6.1 | 0.08 | 0.16 | 0.16 | 93 | 1010.1 |
| 20260903111545 | 70 | 120 | 1.7 | 3.5 | 0.03 | 0.11 | 0.11 | 92 | 1010.6 |
| 20260903110043 | 70 | 117 | 1.7 | 4.3 | 0.01 | 0.09 | 0.09 | 91 | 1010.7 |
| 20260903104541 | 72 | 191 | 0.0 | 5.2 | 0.00 | 0.08 | 0.08 | 88 | 1011.2 |
| 20260903103041 | 71 | 217 | 1.7 | 7.0 | 0.00 | 0.08 | 0.08 | 89 | 1011.5 |
| 20260903101540 | 70 | 245 | 3.5 | 7.0 | 0.00 | 0.08 | 0.08 | 90 | 1011.0 |
| 20260903100040 | 72 | 174 | 2.6 | 9.6 | 0.01 | 0.08 | 0.08 | 87 | 1010.8 |
| 20260903094549 | 70 | 218 | 2.6 | 7.8 | 0.03 | 0.08 | 0.08 | 90 | 1010.7 |
| 20260903093037 | 69 | 169 | 0.9 | 3.5 | 0.08 | 0.08 | 0.08 | 93 | 1011.2 |
| 20260903091534 | 70 | 221 | 3.5 | 6.1 | 0.08 | 0.08 | 0.08 | 91 | 1011.7 |
| 20260903090032 | 72 | 216 | 5.2 | 16.5 | 0.07 | 0.07 | 0.07 | 89 | 1011.3 |
| 20260903084541 | 73 | 241 | 8.7 | 13.9 | 0.05 | 0.05 | 0.05 | 87 | 1011.4 |
| 20260903083027 | 74 | 193 | 0.0 | 1.7 | 0.00 | 0.00 | 0.00 | 91 | 1010.1 |
| 20260903081525 | 74 | 200 | 1.7 | 6.1 | 0.00 | 0.00 | 0.00 | 91 | 1009.7 |
| 20260903080022 | 74 | 193 | 1.7 | 4.3 | 0.00 | 0.00 | 0.00 | 92 | 1009.7 |
| 20260903074518 | 73 | 221 | 2.6 | 6.1 | 0.00 | 0.00 | 0.00 | 95 | 1009.8 |
| 20260903073017 | 72 | 184 | 0.9 | 2.6 | 0.00 | 0.00 | 0.00 | 95 | 1009.7 |
| 20260903071516 | 72 | 176 | 0.9 | 1.7 | 0.00 | 0.00 | 0.00 | 95 | 1009.6 |
| 20260903070015 | 72 | 176 | 0.9 | 1.7 | 0.00 | 0.00 | 0.00 | 95 | 1009.6 |
| 20260903064513 | 72 | 169 | 0.9 | 1.7 | 0.00 | 0.08 | 0.00 | 94 | 1009.6 |
| 20260903063012 | 72 | 156 | 0.9 | 1.7 | 0.00 | 0.08 | 0.00 | 94 | 1009.6 |
| 20260903061513 | 73 | 155 | 0.0 | 1.7 | 0.00 | 0.08 | 0.00 | 93 | 1009.7 |
| 20260903060006 | 73 | 120 | 0.0 | 0.0 | 0.00 | 0.08 | 0.00 | 93 | 1009.6 |
| 20260903054501 | 73 | 117 | 0.0 | 0.0 | 0.00 | 1.01 | 0.00 | 93 | 1009.7 |
| 20260903053113 | 73 | 115 | 0.0 | 0.0 | 0.00 | 1.01 | 0.00 | 93 | 1009.8 |
| 20260903051552 | 73 | 103 | 0.0 | 0.0 | 0.00 | 1.01 | 0.00 | 93 | 1009.9 |
| 20260903050059 | 73 | 98 | 0.0 | 0.0 | 0.00 | 1.01 | 0.00 | 94 | 1009.8 |
| 20260903044557 | 73 | 96 | 0.0 | 0.0 | 0.00 | 1.01 | 1.01 | 93 | 1009.8 |
| 20260903043105 | 73 | 103 | 0.0 | 1.7 | 0.00 | 1.01 | 1.01 | 93 | 1009.9 |
| 20260903041552 | 73 | 100 | 0.0 | 0.0 | 0.00 | 1.01 | 1.01 | 93 | 1010.0 |
| 20260903040049 | 73 | 100 | 0.0 | 0.0 | 0.00 | 1.01 | 1.01 | 93 | 1009.9 |
| 20260903034545 | 73 | 99 | 0.0 | 0.0 | 0.00 | 1.01 | 1.01 | 93 | 1010.0 |
| 20260903033044 | 74 | 95 | 0.0 | 1.7 | 0.00 | 1.01 | 1.01 | 92 | 1010.1 |
| 20260903031544 | 74 | 91 | 0.0 | 0.0 | 0.00 | 1.01 | 1.01 | 92 | 1010.1 |
| 20260903030044 | 74 | 85 | 0.0 | 1.7 | 0.00 | 1.01 | 1.01 | 91 | 1010.2 |
| 20260903024543 | 75 | 143 | 0.0 | 1.7 | 0.00 | 1.01 | 1.01 | 90 | 1010.1 |
| 20260903023043 | 75 | 144 | 0.0 | 0.9 | 0.00 | 1.01 | 1.01 | 89 | 1010.2 |
| 20260903021550 | 76 | 146 | 0.0 | 0.9 | 0.00 | 1.01 | 1.01 | 89 | 1010.0 |
| 20260903020042 | 76 | 146 | 0.0 | 1.7 | 0.00 | 1.01 | 1.01 | 88 | 1009.9 |
| 20260903014544 | 77 | 149 | 0.0 | 1.7 | 0.00 | 1.01 | 1.01 | 87 | 1009.7 |
| 20260903013040 | 78 | 156 | 0.0 | 0.9 | 0.00 | 1.01 | 1.01 | 86 | 1009.8 |
| 20260903011540 | 78 | 172 | 0.0 | 0.9 | 0.00 | 1.01 | 1.01 | 85 | 1009.7 |
| 20260903010040 | 79 | 176 | 0.0 | 0.9 | 0.00 | 1.01 | 1.01 | 83 | 1009.5 |
| 20260903004539 | 80 | 176 | 0.0 | 0.9 | 0.00 | 1.01 | 1.01 | 82 | 1009.6 |
| 20260903003038 | 81 | 177 | 0.0 | 0.9 | 0.00 | 1.01 | 1.01 | 81 | 1009.7 |
| 20260903001538 | 81 | 178 | 0.0 | 0.9 | 0.00 | 1.01 | 1.01 | 81 | 1009.8 |
| 20260903000038 | 82 | 179 | 0.0 | 0.9 | 0.00 | 1.01 | 1.01 | 79 | 1009.7 |
| 20260902234536 | 83 | 177 | 0.0 | 0.0 | 0.00 | 1.01 | 1.01 | 79 | 1009.7 |
| 20260902233036 | 85 | 179 | 0.0 | 1.7 | 0.00 | 1.01 | 1.01 | 74 | 1009.9 |
| 20260902231535 | 85 | 176 | 0.0 | 1.7 | 0.00 | 1.01 | 1.01 | 73 | 1009.7 |
| 20260902230034 | 86 | 169 | 0.0 | 1.7 | 0.00 | 1.01 | 1.01 | 71 | 1009.7 |
| 20260902224541 | 86 | 178 | 0.0 | 2.6 | 0.00 | 1.01 | 1.01 | 70 | 1009.8 |
| 20260902223033 | 86 | 175 | 0.0 | 2.6 | 0.00 | 1.01 | 1.01 | 70 | 1009.8 |
| 20260902221537 | 86 | 179 | 0.9 | 6.1 | 0.00 | 1.01 | 1.01 | 67 | 1009.9 |
| 20260902220042 | 87 | 187 | 2.6 | 7.0 | 0.00 | 1.01 | 1.01 | 67 | 1010.0 |
| 20260902214530 | 88 | 173 | 1.7 | 5.2 | 0.00 | 1.07 | 1.01 | 68 | 1010.1 |
| 20260902213028 | 89 | 178 | 0.0 | 1.7 | 0.00 | 1.07 | 1.01 | 66 | 1010.1 |
| 20260902211525 | 88 | 180 | 0.0 | 4.3 | 0.00 | 1.07 | 1.01 | 66 | 1010.2 |
| 20260902210125 | 87 | 239 | 3.5 | 7.0 | 0.00 | 1.07 | 1.01 | 66 | 1010.3 |
| 20260902204529 | 86 | 240 | 3.5 | 7.0 | 0.00 | 1.08 | 1.01 | 66 | 1010.4 |
| 20260902203023 | 87 | 221 | 3.5 | 6.1 | 0.00 | 1.08 | 1.01 | 64 | 1010.3 |
| 20260902201524 | 87 | 235 | 1.7 | 6.1 | 0.00 | 1.08 | 1.01 | 66 | 1010.6 |
| 20260902200021 | 86 | 214 | 2.6 | 6.1 | 0.00 | 1.08 | 1.01 | 66 | 1010.6 |
| 20260902194519 | 87 | 217 | 1.7 | 5.2 | 0.00 | 1.08 | 1.01 | 64 | 1010.9 |
| 20260902193020 | 87 | 196 | 2.6 | 7.8 | 0.00 | 1.08 | 1.01 | 66 | 1011.0 |
| 20260902191519 | 87 | 234 | 1.7 | 4.3 | 0.00 | 1.08 | 1.01 | 64 | 1011.1 |